createdAt,value
2019-03-08T00:02:46.253Z,23.1
2019-03-08T00:07:52.141Z,23.1
2019-03-08T00:12:57.871Z,23.1
2019-03-08T00:18:03.730Z,23.1
2019-03-08T00:23:09.745Z,23.1
2019-03-08T00:28:15.897Z,23.1
2019-03-08T00:33:21.013Z,23.1
2019-03-08T00:38:26.234Z,23.1
2019-03-08T00:43:32.065Z,23.1
2019-03-08T00:48:37.889Z,23.1
2019-03-08T00:53:43.708Z,23.1
2019-03-08T00:58:50.596Z,23.1
2019-03-08T01:03:56.156Z,23.1
2019-03-08T01:09:01.225Z,23.1
2019-03-08T01:14:06.342Z,23.1
2019-03-08T01:19:11.389Z,23.1
2019-03-08T01:24:16.791Z,23.1
2019-03-08T01:29:22.476Z,23.1
2019-03-08T01:34:28.376Z,23.1
2019-03-08T01:39:33.717Z,23.1
2019-03-08T01:44:38.795Z,23.1
2019-03-08T01:49:43.996Z,23
2019-03-08T01:54:50.526Z,23
2019-03-08T01:59:56.799Z,23
2019-03-08T02:05:02.421Z,23.1
2019-03-08T02:10:07.671Z,23.1
2019-03-08T02:15:12.866Z,23.1
2019-03-08T02:20:18.064Z,23
2019-03-08T02:25:23.913Z,23.1
2019-03-08T02:30:29.535Z,23.1
2019-03-08T02:35:35.244Z,23
2019-03-08T02:40:43.826Z,23.1
2019-03-08T02:45:49.958Z,23.1
2019-03-08T02:50:55.921Z,23.1
2019-03-08T02:56:01.609Z,23.1
2019-03-08T03:01:08.105Z,23.1
2019-03-08T03:06:13.872Z,23.1
2019-03-08T03:11:18.877Z,23.1
2019-03-08T03:16:24.586Z,23
2019-03-08T03:21:30.412Z,23.1
2019-03-08T03:26:36.063Z,23
2019-03-08T03:36:46.037Z,23
2019-03-08T03:41:51.274Z,23
2019-03-08T03:46:57.063Z,23
2019-03-08T03:52:03.189Z,23
2019-03-08T03:57:08.855Z,23
2019-03-08T04:02:14.692Z,23
2019-03-08T04:07:20.824Z,23
2019-03-08T04:12:26.364Z,23
2019-03-08T04:17:32.063Z,22.9
2019-03-08T04:22:38.635Z,23
2019-03-08T04:28:26.032Z,23
2019-03-08T04:33:31.674Z,22.9
2019-03-08T04:38:36.701Z,22.9
2019-03-08T04:43:41.860Z,23
2019-03-08T04:49:57.645Z,23
2019-03-08T04:55:03.416Z,23
2019-03-08T05:00:10.295Z,23
2019-03-08T05:05:17.852Z,23
2019-03-08T05:10:22.976Z,23
2019-03-08T05:15:28.940Z,23
2019-03-08T05:20:34.493Z,23
2019-03-08T05:25:39.728Z,23
2019-03-08T05:30:44.740Z,23
2019-03-08T05:35:50.386Z,23
2019-03-08T05:40:56.117Z,23
2019-03-08T05:46:02.341Z,23.1
2019-03-08T05:51:07.707Z,23.1
2019-03-08T05:56:13.083Z,23.1
2019-03-08T06:01:18.169Z,23.1
2019-03-08T06:06:23.496Z,23.1
2019-03-08T06:11:31.313Z,23.1
2019-03-08T06:16:37.678Z,23.1
2019-03-08T06:21:43.585Z,23.1
2019-03-08T06:26:48.802Z,23.1
2019-03-08T06:31:53.859Z,23.1
2019-03-08T06:36:59.182Z,23.2
2019-03-08T06:42:05.618Z,23.1
2019-03-08T06:47:11.105Z,23.1
2019-03-08T06:52:16.522Z,23.2
2019-03-08T06:57:22.518Z,23.2
2019-03-08T07:02:30.175Z,23.2
2019-03-08T07:12:40.880Z,23.2
2019-03-08T07:17:46.697Z,23.2
2019-03-08T07:27:57.281Z,23.2
2019-03-08T07:33:03.283Z,23.2
2019-03-08T07:38:09.051Z,23.2
2019-03-08T07:43:14.741Z,23.2
2019-03-08T07:48:19.891Z,23.2
2019-03-08T07:53:25.304Z,23.2
2019-03-08T07:58:32.919Z,23.2
2019-03-08T08:03:38.940Z,23.2
2019-03-08T08:08:53.372Z,23.3
2019-03-08T08:18:52.456Z,23.3
2019-03-08T08:23:57.688Z,23.3
2019-03-08T08:29:03.357Z,23.3
2019-03-08T08:34:09.116Z,23.3
2019-03-08T08:39:15.248Z,23.3
2019-03-08T08:44:20.918Z,23.3
2019-03-08T08:49:26.749Z,23.3
2019-03-08T08:54:32.510Z,23.3
2019-03-08T08:59:37.610Z,23.3
2019-03-08T09:04:43.946Z,23.3
2019-03-08T09:09:50.336Z,23.3
2019-03-08T09:14:55.985Z,23.3
2019-03-08T09:20:01.512Z,23.3
2019-03-08T09:25:07.027Z,23.3
2019-03-08T09:30:11.876Z,23.3
2019-03-08T09:35:17.977Z,23.2
2019-03-08T09:40:23.701Z,23.2
2019-03-08T09:45:29.710Z,23.2
2019-03-08T09:50:35.994Z,23.3
2019-03-08T09:55:41.827Z,23.3
2019-03-08T10:00:49.191Z,23.3
2019-03-08T10:05:54.575Z,23.2
2019-03-08T10:11:00.205Z,23.3
2019-03-08T10:16:06.026Z,23.3
2019-03-08T10:21:12.199Z,23.3
2019-03-08T10:31:22.497Z,23.3
2019-03-08T10:36:27.976Z,23.3
2019-03-08T10:41:34.324Z,23.3
2019-03-08T10:51:44.575Z,23.3
2019-03-08T10:56:50.452Z,23.4
2019-03-08T11:01:55.963Z,23.4
2019-03-08T11:07:03.982Z,23.4
2019-03-08T11:12:09.644Z,23.4
2019-03-08T11:17:14.859Z,23.5
2019-03-08T11:22:20.505Z,23.5
2019-03-08T11:27:26.043Z,23.4
2019-03-08T11:32:31.221Z,23.4
2019-03-08T11:37:36.644Z,23.3
2019-03-08T11:42:42.480Z,23.3
2019-03-08T11:47:47.530Z,23.3
2019-03-08T11:52:53.057Z,23.2
2019-03-08T11:57:58.438Z,23.2
2019-03-08T12:03:04.170Z,23.2
2019-03-08T12:08:09.534Z,23.2
2019-03-08T12:13:16.061Z,23.2
2019-03-08T12:18:22.240Z,23.2
2019-03-08T12:23:27.893Z,23.2
2019-03-08T12:28:32.964Z,23.2
2019-03-08T12:33:38.303Z,23.2
2019-03-08T12:38:43.342Z,23.2
2019-03-08T12:43:49.704Z,23.2
2019-03-08T12:48:55.331Z,23.1
2019-03-08T12:54:01.560Z,23.2
2019-03-08T12:59:06.650Z,23.2
2019-03-08T13:04:12.631Z,23.1
2019-03-08T13:09:17.714Z,23.2
2019-03-08T13:14:23.926Z,23.2
2019-03-08T13:19:29.204Z,23.2
2019-03-08T13:24:34.860Z,23.3
2019-03-08T13:29:40.964Z,23.3
2019-03-08T13:34:46.673Z,23.6
2019-03-08T13:39:52.489Z,23.8
2019-03-08T13:44:58.476Z,23.7
2019-03-08T13:50:03.959Z,23.6
2019-03-08T13:55:11.645Z,23.5
2019-03-08T14:00:17.370Z,23.5
2019-03-08T14:05:23.146Z,23.5
2019-03-08T14:10:28.509Z,23.5
2019-03-08T14:15:34.177Z,23.5
2019-03-08T14:20:39.843Z,23.4
2019-03-08T14:25:45.828Z,23.4
2019-03-08T14:30:59.593Z,23.3
2019-03-08T14:35:55.546Z,23.4
2019-03-08T14:41:01.607Z,23.3
2019-03-08T14:46:07.539Z,23.3
2019-03-08T14:51:14.838Z,23.3
2019-03-08T14:56:20.099Z,23.3
2019-03-08T15:01:26.117Z,23.3
2019-03-08T15:06:32.096Z,23.3
2019-03-08T15:11:37.323Z,23.3
2019-03-08T15:16:42.774Z,23.3
2019-03-08T15:21:50.538Z,23.3
2019-03-08T15:26:56.027Z,23.3
2019-03-08T15:32:00.858Z,23.3
2019-03-08T15:37:05.962Z,23.3
2019-03-08T15:42:11.179Z,23.2
2019-03-08T15:47:25.263Z,23.2
2019-03-08T15:52:20.346Z,23.2
2019-03-08T15:57:25.665Z,23.2
2019-03-08T16:02:30.603Z,23.2
2019-03-08T16:07:35.670Z,23.2
2019-03-08T16:12:40.679Z,23.2
2019-03-08T16:17:46.619Z,23.1
2019-03-08T16:22:51.945Z,23.1
2019-03-08T16:27:57.642Z,23.1
2019-03-08T16:33:03.982Z,23.2
2019-03-08T16:38:09.835Z,23.1
2019-03-08T16:43:15.114Z,23.2
2019-03-08T16:48:21.170Z,23.1
2019-03-08T16:53:26.362Z,23.1
2019-03-08T16:58:33.431Z,23.1
2019-03-08T17:03:39.414Z,23.1
2019-03-08T17:08:45.656Z,23.1
2019-03-08T17:13:51.364Z,23.1
2019-03-08T17:18:57.025Z,23.1
2019-03-08T17:29:06.210Z,23.1
2019-03-08T17:34:11.870Z,23.1
2019-03-08T17:39:17.861Z,23.1
2019-03-08T17:44:23.585Z,23.1
2019-03-08T17:49:29.331Z,23.1
2019-03-08T17:54:33.276Z,23.1
2019-03-08T17:59:38.872Z,23.1
2019-03-08T18:04:44.980Z,23.1
2019-03-08T18:09:50.964Z,23.1
2019-03-08T18:14:56.760Z,23.1
2019-03-08T18:20:02.736Z,23.1
2019-03-08T18:25:08.145Z,23.1
2019-03-08T18:30:16.390Z,23.1
2019-03-08T18:35:22.358Z,23.1
2019-03-08T18:40:29.920Z,23
2019-03-08T18:45:35.549Z,23
2019-03-08T18:50:40.923Z,23
2019-03-08T18:55:46.575Z,23
2019-03-08T19:00:51.984Z,23
2019-03-08T19:05:55.712Z,23
2019-03-08T19:11:01.676Z,23
2019-03-08T19:16:07.293Z,23
2019-03-08T19:21:11.844Z,23
2019-03-08T19:26:17.824Z,23
2019-03-08T19:31:24.429Z,23
2019-03-08T19:36:31.681Z,22.9
2019-03-08T19:41:37.522Z,23
2019-03-08T19:46:42.595Z,22.9
2019-03-08T19:51:48.063Z,22.9
2019-03-08T19:56:53.172Z,22.9
2019-03-08T20:01:58.432Z,22.9
2019-03-08T20:07:04.320Z,22.9
2019-03-08T20:12:09.465Z,22.9
2019-03-08T20:17:15.474Z,22.9
2019-03-08T20:22:21.377Z,22.9
2019-03-08T20:27:27.087Z,22.9
2019-03-08T20:32:33.232Z,22.9
2019-03-08T20:37:38.912Z,22.9
2019-03-08T20:42:44.087Z,22.9
2019-03-08T20:47:49.818Z,22.9
2019-03-08T20:52:55.016Z,22.9
2019-03-08T20:58:00.141Z,22.9
2019-03-08T21:03:05.478Z,22.8
2019-03-08T21:08:11.202Z,22.8
2019-03-08T21:13:16.580Z,22.8
2019-03-08T21:18:21.947Z,22.8
2019-03-08T21:23:27.171Z,22.8
2019-03-08T21:28:32.729Z,22.8
2019-03-08T21:33:38.238Z,22.8
2019-03-08T21:38:43.966Z,22.8
2019-03-08T21:43:49.217Z,22.7
2019-03-08T21:48:55.335Z,22.8
2019-03-08T21:54:00.334Z,22.8
2019-03-08T21:59:06.304Z,22.7
2019-03-08T22:04:11.860Z,22.7
2019-03-08T22:09:18.463Z,22.7
2019-03-08T22:14:24.293Z,22.7
2019-03-08T22:19:30.266Z,22.7
2019-03-08T22:24:36.856Z,22.7
2019-03-08T22:29:43.368Z,22.7
2019-03-08T22:34:48.847Z,22.7
2019-03-08T22:39:54.155Z,22.7
2019-03-08T22:45:01.041Z,22.7
2019-03-08T22:50:06.022Z,22.7
2019-03-08T22:55:11.689Z,22.6
2019-03-08T23:00:17.441Z,22.6
2019-03-08T23:05:22.661Z,22.6
2019-03-08T23:10:29.113Z,22.6
2019-03-08T23:15:34.923Z,22.6
2019-03-08T23:20:40.436Z,22.6
2019-03-08T23:25:46.193Z,22.6
2019-03-08T23:30:51.156Z,22.6
2019-03-08T23:35:56.324Z,22.6
2019-03-08T23:41:01.341Z,22.6
2019-03-08T23:46:06.353Z,22.6
2019-03-08T23:51:11.464Z,22.5
2019-03-08T23:56:16.624Z,22.5
